Time;durP1;ratioP1;P1;durP2;ratioP2;P2;SDS_P1;SDS_P2;PMS_P1;PMS_P2;Temp;Humidity;BMP_temperature;BMP_pressure;BME280_temperature;BME280_humidity;BME280_pressure;Samples;Min_cycle;Max_cycle;Signal;HPM_P1;HPM_P2
2022/09/25 00:01:14;;;;;;;11.45;7.72;;;;;;;17.04;51.81;99410.03;4499313;31;34053;-62
2022/09/25 00:03:42;;;;;;;12.00;7.97;;;;;;;17.06;51.26;99399.91;4499347;31;34026;-62
2022/09/25 00:06:14;;;;;;;11.88;6.97;;;;;;;16.84;51.92;99396.78;4495288;31;33490;-62
2022/09/25 00:08:41;;;;;;;10.77;5.30;;;;;;;16.90;51.75;99390.75;4496050;31;34591;-62
2022/09/25 00:11:12;;;;;;;12.98;7.45;;;;;;;16.87;52.27;99396.47;4493266;31;34245;-63
2022/09/25 00:13:40;;;;;;;9.80;7.55;;;;;;;16.74;52.22;99398.75;4494983;31;34262;-62
2022/09/25 00:16:13;;;;;;;12.45;7.90;;;;;;;16.77;52.07;99395.75;4490318;31;34557;-63
2022/09/25 00:21:29;;;;;;;13.43;6.82;;;;;;;16.70;52.53;99389.28;4491546;31;34127;-63
2022/09/25 00:24:02;;;;;;;11.05;6.70;;;;;;;16.76;51.97;99385.97;4498188;31;33145;-63
2022/09/25 00:26:32;;;;;;;10.27;7.00;;;;;;;16.74;51.87;99380.69;4492045;31;33273;-62
2022/09/25 00:29:00;;;;;;;10.98;8.00;;;;;;;16.59;52.55;99376.91;4492493;31;34948;-63
2022/09/25 00:31:28;;;;;;;8.82;5.55;;;;;;;16.66;52.43;99385.19;4491616;31;33926;-63
2022/09/25 00:33:58;;;;;;;13.57;5.25;;;;;;;16.37;53.08;99383.75;4497493;31;34083;-62
2022/09/25 00:36:26;;;;;;;10.32;6.37;;;;;;;16.43;52.85;99374.97;4496659;31;33548;-62
2022/09/25 00:38:53;;;;;;;12.20;6.78;;;;;;;16.56;52.71;99377.22;4497073;31;33965;-64
2022/09/25 00:41:24;;;;;;;9.38;6.65;;;;;;;16.45;53.23;99370.25;4498633;31;33845;-64
2022/09/25 00:43:55;;;;;;;10.60;6.57;;;;;;;16.53;53.03;99370.31;4499056;31;33899;-62
2022/09/25 00:46:29;;;;;;;10.23;6.82;;;;;;;16.64;52.64;99379.12;4496719;31;32730;-63
2022/09/25 00:49:09;;;;;;;6.97;4.78;;;;;;;16.61;53.06;99374.03;4489579;31;34788;-62
2022/09/25 00:51:51;;;;;;;8.02;4.95;;;;;;;16.58;53.04;99369.81;4484231;31;34068;-62
2022/09/25 00:54:26;;;;;;;8.70;6.50;;;;;;;16.61;53.21;99374.03;4488818;31;33781;-62
2022/09/25 00:56:55;;;;;;;9.63;6.05;;;;;;;16.58;53.43;99366.25;4498612;31;33200;-62
2022/09/25 00:59:30;;;;;;;8.80;5.07;;;;;;;16.70;53.27;99368.50;4498053;31;33935;-63
2022/09/25 01:01:58;;;;;;;9.60;6.80;;;;;;;16.71;53.00;99367.50;4497687;31;33883;-62
2022/09/25 01:04:28;;;;;;;8.95;6.53;;;;;;;16.64;53.28;99371.88;4496882;31;34866;-63
2022/09/25 01:06:56;;;;;;;9.77;6.68;;;;;;;16.55;53.54;99378.22;4497352;31;33364;-62
2022/09/25 01:09:23;;;;;;;10.45;6.40;;;;;;;16.64;53.32;99376.44;4499102;31;34940;-63
2022/09/25 01:11:52;;;;;;;7.90;5.43;;;;;;;16.42;54.18;99369.75;4490899;31;34103;-62
2022/09/25 01:14:19;;;;;;;11.12;5.30;;;;;;;16.73;53.33;99368.19;4494756;31;33853;-62
2022/09/25 01:17:01;;;;;;;9.10;6.07;;;;;;;16.73;53.59;99356.53;4496970;31;33546;-62
2022/09/25 01:19:47;;;;;;;8.95;6.50;;;;;;;16.83;53.47;99359.97;4489406;31;34107;-62
2022/09/25 01:22:29;;;;;;;7.70;6.07;;;;;;;16.83;53.35;99361.84;4490883;31;35246;-63
2022/09/25 01:25:10;;;;;;;11.45;6.90;;;;;;;16.83;53.28;99359.13;4484824;31;33720;-62
2022/09/25 01:28:04;;;;;;;7.82;5.85;;;;;;;16.80;53.50;99363.00;4492028;31;34429;-62
2022/09/25 01:30:36;;;;;;;8.60;6.37;;;;;;;16.78;53.54;99367.72;4498049;31;33560;-62
2022/09/25 01:33:18;;;;;;;9.85;6.80;;;;;;;16.73;53.33;99368.19;4501018;31;34167;-62
2022/09/25 01:36:01;;;;;;;10.73;6.70;;;;;;;16.77;53.11;99358.75;4489437;31;34865;-62
2022/09/25 01:38:32;;;;;;;10.82;7.45;;;;;;;16.72;53.35;99360.22;4487183;31;33408;-62
2022/09/25 01:41:31;;;;;;;13.05;6.80;;;;;;;16.65;53.82;99364.59;4500607;31;37024;-62
2022/09/25 01:44:02;;;;;;;11.02;6.22;;;;;;;16.68;53.46;99366.97;4473096;31;33794;-62
2022/09/25 01:46:35;;;;;;;9.80;6.68;;;;;;;16.57;53.66;99356.47;4497179;31;34365;-62
2022/09/25 01:49:07;;;;;;;9.20;6.20;;;;;;;16.42;54.23;99361.63;4492151;31;34360;-63
2022/09/25 01:51:38;;;;;;;8.55;5.85;;;;;;;16.53;54.17;99362.22;4477327;31;33417;-63
2022/09/25 01:54:11;;;;;;;9.70;7.22;;;;;;;16.63;53.76;99353.97;4481863;31;33108;-63
2022/09/25 01:56:48;;;;;;;9.63;5.60;;;;;;;16.62;53.81;99356.81;4485792;31;34119;-62
2022/09/25 01:59:24;;;;;;;10.27;6.68;;;;;;;16.71;53.62;99355.84;4485535;31;33452;-62
2022/09/25 02:01:53;;;;;;;12.25;7.55;;;;;;;16.57;53.86;99356.47;4481370;31;33635;-63
2022/09/25 02:04:31;;;;;;;9.13;6.57;;;;;;;16.56;53.71;99350.19;4497708;31;34481;-63
2022/09/25 02:07:03;;;;;;;8.02;5.20;;;;;;;16.61;53.50;99347.88;4485327;31;33453;-62
2022/09/25 02:09:42;;;;;;;10.05;5.50;;;;;;;16.58;53.64;99347.34;4484880;31;32270;-63
2022/09/25 02:12:16;;;;;;;10.98;7.47;;;;;;;16.67;53.26;99352.63;4493092;31;34019;-63
2022/09/25 02:14:48;;;;;;;8.88;6.55;;;;;;;16.66;53.29;99348.25;4495200;31;33516;-62
2022/09/25 02:22:59;;;;;;;9.63;5.95;;;;;;;16.51;53.39;99356.09;4481915;31;32627;-63
2022/09/25 02:25:42;;;;;;;9.35;7.22;;;;;;;16.56;53.45;99350.19;4485688;31;33935;-63
2022/09/25 02:28:10;;;;;;;9.90;6.40;;;;;;;16.60;53.21;99356.16;4491151;31;33831;-63
2022/09/25 02:30:38;;;;;;;7.93;5.32;;;;;;;16.48;53.59;99363.69;4478807;31;33153;-62
2022/09/25 02:33:05;;;;;;;10.55;5.78;;;;;;;16.56;53.40;99366.41;4484022;31;33577;-63
2022/09/25 02:35:33;;;;;;;9.10;6.57;;;;;;;16.47;53.74;99356.59;4481812;31;33730;-63
2022/09/25 02:38:01;;;;;;;10.32;6.82;;;;;;;16.39;53.90;99357.41;4486722;31;35217;-62
2022/09/25 02:40:43;;;;;;;9.27;6.57;;;;;;;16.43;53.86;99356.06;4488461;31;33331;-62
2022/09/25 02:43:26;;;;;;;10.50;6.43;;;;;;;16.42;53.87;99351.66;4495918;31;33514;-62
2022/09/25 02:46:22;;;;;;;12.40;6.55;;;;;;;16.43;53.77;99364.16;4495941;31;33573;-62
2022/09/25 02:49:05;;;;;;;13.15;5.70;;;;;;;16.39;53.66;99352.00;4446706;31;33860;-62
2022/09/25 02:51:46;;;;;;;9.80;6.35;;;;;;;16.39;53.76;99343.88;4481952;31;33378;-63
2022/09/25 02:54:20;;;;;;;10.73;7.00;;;;;;;16.30;53.77;99352.94;4491285;31;34509;-62
2022/09/25 02:57:32;;;;;;;10.77;7.03;;;;;;;16.19;53.99;99351.38;4485929;31;31382;-62
2022/09/25 03:00:04;;;;;;;7.30;5.07;;;;;;;16.15;54.38;99336.53;4461206;31;34816;-62
2022/09/25 03:02:33;;;;;;;7.87;5.28;;;;;;;16.17;54.28;99334.50;4496864;31;32287;-62
2022/09/25 03:05:02;;;;;;;8.07;5.95;;;;;;;16.24;54.03;99334.69;4498213;31;32239;-62
2022/09/25 03:08:36;;;;;;;8.85;6.40;;;;;;;16.21;54.10;99345.81;4485601;31;34099;-62
2022/09/25 03:10:18;;;;;;;8.65;6.37;;;;;;;15.97;54.68;99343.84;4494743;31;34814;-62
2022/09/25 03:12:46;;;;;;;9.48;6.35;;;;;;;16.17;54.26;99333.66;4494970;31;33229;-62
2022/09/25 03:15:13;;;;;;;9.75;6.62;;;;;;;15.78;55.43;99331.37;4492630;31;32416;-62
2022/09/25 03:17:42;;;;;;;9.20;7.25;;;;;;;16.09;54.82;99325.53;4492127;31;33721;-62
2022/09/25 03:20:09;;;;;;;8.38;6.22;;;;;;;16.05;54.85;99333.06;4490127;31;34711;-62
2022/09/25 03:22:37;;;;;;;8.38;5.40;;;;;;;16.02;54.88;99334.25;4494866;31;33137;-62
2022/09/25 03:25:05;;;;;;;9.45;7.00;;;;;;;16.10;54.73;99328.03;4494981;31;34699;-62
2022/09/25 03:27:32;;;;;;;7.70;6.07;;;;;;;16.04;54.98;99328.69;4497556;31;33634;-62
2022/09/25 03:30:01;;;;;;;10.27;6.95;;;;;;;15.96;55.43;99328.66;4495120;31;33690;-62
2022/09/25 03:32:28;;;;;;;10.20;6.85;;;;;;;16.10;54.98;99325.34;4493100;31;33534;-62
2022/09/25 03:34:56;;;;;;;6.60;4.25;;;;;;;16.02;55.22;99326.16;4491705;31;33933;-63
2022/09/25 03:37:24;;;;;;;9.15;6.80;;;;;;;16.20;54.81;99317.97;4494667;31;35663;-62
2022/09/25 03:39:52;;;;;;;7.60;4.80;;;;;;;16.12;55.10;99327.91;4494449;31;33860;-62
2022/09/25 03:42:19;;;;;;;9.88;6.07;;;;;;;16.26;54.84;99327.28;4497058;31;33261;-63
2022/09/25 03:44:46;;;;;;;7.70;5.43;;;;;;;16.21;54.86;99329.63;4492330;31;34828;-62
2022/09/25 03:47:14;;;;;;;8.82;4.55;;;;;;;16.26;54.67;99336.22;4492451;31;33961;-62
2022/09/25 03:49:42;;;;;;;9.02;6.90;;;;;;;16.32;54.39;99340.16;4495807;31;33541;-62
2022/09/25 03:52:11;;;;;;;11.07;6.47;;;;;;;16.25;54.63;99355.31;4486592;31;34738;-62
2022/09/25 03:54:40;;;;;;;9.73;7.03;;;;;;;16.25;54.62;99358.00;4492274;31;36172;-62
2022/09/25 03:57:07;;;;;;;8.70;6.55;;;;;;;16.19;54.89;99350.53;4493595;31;35179;-62
2022/09/25 03:59:34;;;;;;;10.88;6.40;;;;;;;16.21;54.83;99352.09;4488103;31;32752;-61
2022/09/25 04:02:02;;;;;;;11.50;6.22;;;;;;;16.23;54.80;99357.31;4493195;31;33551;-63
2022/09/25 04:04:31;;;;;;;10.18;5.93;;;;;;;16.18;54.63;99354.22;4497192;31;33863;-62
2022/09/25 04:06:58;;;;;;;7.93;6.40;;;;;;;16.23;54.63;99352.75;4495587;31;35198;-62
2022/09/25 04:09:25;;;;;;;10.10;6.37;;;;;;;16.22;54.65;99352.94;4492253;31;35510;-62
2022/09/25 04:11:54;;;;;;;8.38;4.93;;;;;;;16.16;55.01;99345.47;4495411;31;33209;-62
2022/09/25 04:14:22;;;;;;;8.82;5.95;;;;;;;16.11;55.43;99347.78;4494384;31;33808;-62
2022/09/25 04:16:50;;;;;;;11.88;8.43;;;;;;;16.14;55.68;99344.78;4493017;31;34977;-62
2022/09/25 04:19:18;;;;;;;12.10;8.15;;;;;;;16.06;56.24;99340.19;4495291;31;33667;-61
2022/09/25 04:21:46;;;;;;;15.32;10.43;;;;;;;16.13;55.77;99333.13;4489334;31;33566;-62
2022/09/25 04:27:00;;;;;;;12.23;9.32;;;;;;;16.18;55.80;99335.34;4492664;31;33799;-62
2022/09/25 04:29:27;;;;;;;13.07;9.02;;;;;;;16.23;55.75;99333.00;4493858;31;35466;-62
2022/09/25 04:34:41;;;;;;;12.82;8.38;;;;;;;16.37;55.05;99332.41;4495537;31;33201;-62
2022/09/25 04:37:09;;;;;;;13.20;8.48;;;;;;;16.32;55.23;99337.44;4491633;31;33683;-62
2022/09/25 04:39:36;;;;;;;12.95;8.15;;;;;;;16.37;55.36;99328.84;4493108;31;32159;-67
2022/09/25 04:42:05;;;;;;;9.43;6.82;;;;;;;16.37;55.54;99332.41;4491058;31;34020;-62
2022/09/25 04:44:32;;;;;;;9.98;6.30;;;;;;;16.40;55.50;99334.75;4493141;31;34551;-61
2022/09/25 04:46:59;;;;;;;10.55;6.82;;;;;;;16.35;55.42;99331.72;4489961;31;32890;-61
2022/09/25 04:49:28;;;;;;;9.70;7.05;;;;;;;16.33;55.28;99343.69;4484467;31;33943;-62
2022/09/25 04:51:55;;;;;;;7.15;4.70;;;;;;;16.37;55.05;99340.53;4486544;31;31389;-62
2022/09/25 04:54:23;;;;;;;8.25;5.95;;;;;;;16.43;54.87;99350.66;4495040;31;34099;-62
2022/09/25 04:56:51;;;;;;;9.63;6.50;;;;;;;16.43;54.78;99352.50;4491527;31;32429;-61
2022/09/25 04:59:18;;;;;;;9.20;6.10;;;;;;;16.37;54.81;99354.03;4488393;31;34478;-62
2022/09/25 05:01:46;;;;;;;8.40;6.28;;;;;;;16.41;54.61;99350.00;4490842;31;34264;-61
2022/09/25 05:04:15;;;;;;;9.13;5.80;;;;;;;16.38;54.74;99354.88;4493323;31;32513;-62
2022/09/25 05:06:42;;;;;;;10.80;7.82;;;;;;;16.40;54.80;99345.56;4490350;31;33961;-62
2022/09/25 05:09:10;;;;;;;10.77;7.90;;;;;;;16.30;55.14;99342.16;4491153;31;33924;-61
2022/09/25 05:11:37;;;;;;;9.90;7.62;;;;;;;16.34;55.25;99339.97;4487918;31;31814;-62
2022/09/25 05:14:05;;;;;;;9.27;7.22;;;;;;;16.38;55.24;99341.38;4491577;31;33844;-61
2022/09/25 05:16:33;;;;;;;11.38;7.18;;;;;;;16.39;55.53;99333.09;4494350;31;34064;-62
2022/09/25 05:19:01;;;;;;;11.90;7.10;;;;;;;16.35;55.60;99339.00;4495978;31;34136;-62
2022/09/25 05:21:28;;;;;;;12.95;6.75;;;;;;;16.44;55.59;99340.72;4495266;31;34398;-62
2022/09/25 05:23:56;;;;;;;11.98;7.82;;;;;;;16.47;55.73;99338.53;4490796;31;32834;-63
2022/09/25 05:26:24;;;;;;;12.88;8.35;;;;;;;16.48;55.74;99342.91;4491592;31;36097;-62
2022/09/25 05:28:51;;;;;;;10.63;6.82;;;;;;;16.40;56.29;99352.84;4490565;31;34631;-62
2022/09/25 05:31:19;;;;;;;13.65;8.25;;;;;;;16.63;55.91;99347.69;4486389;31;32111;-63
2022/09/25 05:33:47;;;;;;;11.45;9.27;;;;;;;16.57;56.09;99342.97;4493579;31;34821;-62
2022/09/25 05:36:17;;;;;;;13.18;8.82;;;;;;;16.58;55.86;99345.50;4491681;31;34060;-62
2022/09/25 05:38:45;;;;;;;12.65;8.80;;;;;;;16.64;55.97;99347.53;4492366;31;34812;-62
2022/09/25 05:41:13;;;;;;;13.40;9.50;;;;;;;16.68;55.98;99348.91;4495247;31;34130;-62
2022/09/25 05:43:42;;;;;;;13.10;8.60;;;;;;;16.83;55.67;99359.13;4491417;31;33460;-62
2022/09/25 05:46:10;;;;;;;11.95;9.13;;;;;;;16.76;56.13;99358.94;4482767;31;35233;-62
2022/09/25 05:48:38;;;;;;;12.55;9.35;;;;;;;16.88;55.92;99367.59;4491714;31;33700;-62
2022/09/25 05:51:06;;;;;;;12.32;9.15;;;;;;;16.98;55.41;99361.03;4494075;31;34582;-63
2022/09/25 05:53:33;;;;;;;13.82;10.20;;;;;;;16.87;55.61;99360.50;4495314;31;34925;-62
2022/09/25 05:56:02;;;;;;;14.02;10.23;;;;;;;16.95;55.31;99358.66;4494321;31;33673;-62
2022/09/25 05:58:32;;;;;;;12.73;9.88;;;;;;;17.03;55.16;99359.69;4487125;31;33694;-62
2022/09/25 06:01:03;;;;;;;15.00;10.57;;;;;;;16.91;55.34;99354.56;4491396;31;33452;-62
2022/09/25 06:03:31;;;;;;;14.27;10.93;;;;;;;16.98;54.88;99360.16;4487307;31;32621;-62
2022/09/25 06:05:59;;;;;;;15.90;12.02;;;;;;;16.90;55.00;99368.28;4485633;31;33784;-62
2022/09/25 06:08:30;;;;;;;13.95;11.90;;;;;;;16.94;55.00;99375.87;4491299;31;33858;-62
2022/09/25 06:10:59;;;;;;;15.43;10.63;;;;;;;17.08;54.70;99373.53;4495308;31;34819;-62
2022/09/25 06:13:29;;;;;;;14.50;10.98;;;;;;;17.12;54.42;99374.94;4493520;31;33994;-62
2022/09/25 06:15:56;;;;;;;13.85;10.48;;;;;;;17.14;54.55;99375.59;4499453;31;35011;-62
2022/09/25 06:18:24;;;;;;;17.42;11.05;;;;;;;17.16;54.54;99373.56;4494175;31;33744;-63
2022/09/25 06:21:01;;;;;;;20.08;10.45;;;;;;;17.17;54.48;99377.97;4499516;31;33199;-62
2022/09/25 06:23:29;;;;;;;13.20;9.75;;;;;;;17.23;54.56;99380.00;4491122;31;34043;-63
2022/09/25 06:26:04;;;;;;;18.42;10.35;;;;;;;17.23;54.49;99380.84;4499769;31;32850;-62
2022/09/25 06:28:33;;;;;;;;;;;;;;;17.19;54.49;99381.34;4499286;31;33734;-63
2022/09/25 06:31:02;;;;;;;12.48;9.90;;;;;;;17.26;54.04;99378.84;4492250;31;33105;-62
2022/09/25 06:33:30;;;;;;;15.82;11.50;;;;;;;17.22;53.89;99378.31;4494128;31;33739;-63
2022/09/25 06:35:59;;;;;;;15.18;10.35;;;;;;;16.99;54.57;99378.09;4500089;31;35120;-62
2022/09/25 06:38:27;;;;;;;13.60;8.75;;;;;;;17.01;54.66;99386.88;4495220;31;33885;-63
2022/09/25 06:40:57;;;;;;;14.73;10.73;;;;;;;17.13;54.32;99380.16;4497426;31;31913;-63
2022/09/25 06:43:27;;;;;;;15.80;11.38;;;;;;;17.03;54.63;99392.97;4498491;31;33813;-62
2022/09/25 06:45:58;;;;;;;16.25;11.25;;;;;;;16.96;54.82;99397.34;4494316;31;34936;-62
2022/09/25 06:48:26;;;;;;;14.18;11.00;;;;;;;16.96;55.02;99390.09;4491327;31;35261;-62
2022/09/25 06:50:55;;;;;;;12.68;9.98;;;;;;;17.09;54.88;99380.66;4487065;31;33320;-63
2022/09/25 06:53:24;;;;;;;17.70;11.73;;;;;;;17.10;54.98;99383.19;4485432;31;33634;-62
2022/09/25 06:55:54;;;;;;;16.60;10.57;;;;;;;17.12;55.03;99383.87;4498888;31;34856;-62
2022/09/25 06:58:23;;;;;;;13.65;9.52;;;;;;;17.23;54.76;99396.22;4497847;31;33783;-63
2022/09/25 07:00:52;;;;;;;17.15;10.10;;;;;;;17.26;54.23;99395.91;4499778;31;33448;-62
2022/09/25 07:06:08;;;;;;;16.05;11.10;;;;;;;17.25;54.62;99391.50;4496409;31;33765;-62
2022/09/25 07:08:36;;;;;;;18.37;12.80;;;;;;;17.46;54.42;99391.91;4494391;31;32601;-62
2022/09/25 07:11:04;;;;;;;17.58;12.48;;;;;;;17.49;54.45;99389.84;4499640;31;33499;-62
2022/09/25 07:13:33;;;;;;;18.45;13.98;;;;;;;17.54;54.27;99382.94;4496646;31;34981;-62
2022/09/25 07:16:05;;;;;;;25.50;18.55;;;;;;;17.48;54.37;99382.75;4484450;31;33924;-62
2022/09/25 07:18:33;;;;;;;20.55;13.45;;;;;;;17.54;54.20;99380.22;4490241;31;33868;-62
2022/09/25 07:21:04;;;;;;;14.55;11.57;;;;;;;17.53;54.04;99381.25;4497583;31;33171;-63
2022/09/25 07:23:32;;;;;;;16.37;11.75;;;;;;;17.40;54.48;99381.75;4498918;31;33247;-63
2022/09/25 07:26:08;;;;;;;15.63;11.40;;;;;;;17.52;54.38;99374.13;4496494;31;35244;-62
2022/09/25 07:28:37;;;;;;;17.02;12.88;;;;;;;17.74;54.16;99375.31;4490643;31;33862;-63
2022/09/25 07:31:19;;;;;;;15.23;11.50;;;;;;;17.72;54.21;99382.78;4496325;31;34255;-63
2022/09/25 07:33:47;;;;;;;16.92;11.27;;;;;;;17.87;54.17;99386.50;4489696;31;33522;-62
2022/09/25 07:36:15;;;;;;;18.33;13.02;;;;;;;17.81;54.24;99379.06;4487334;31;34820;-62
2022/09/25 07:38:44;;;;;;;17.65;13.55;;;;;;;17.62;54.35;99376.66;4488355;31;34565;-63
2022/09/25 07:41:12;;;;;;;18.37;12.60;;;;;;;17.70;54.42;99377.50;4478270;31;31972;-62
2022/09/25 07:43:43;;;;;;;13.73;8.98;;;;;;;17.81;54.21;99384.47;4495206;31;33909;-62
2022/09/25 07:46:11;;;;;;;7.40;5.22;;;;;;;17.50;55.20;99372.62;4496272;31;33597;-62
2022/09/25 07:48:38;;;;;;;10.43;5.00;;;;;;;17.43;53.91;99370.59;4487242;31;33205;-63
2022/09/25 07:51:10;;;;;;;9.27;4.93;;;;;;;17.62;52.90;99363.13;4496685;31;34407;-62
2022/09/25 07:53:38;;;;;;;7.68;4.53;;;;;;;17.76;52.76;99351.63;4498605;31;33558;-63
2022/09/25 07:56:05;;;;;;;6.50;4.25;;;;;;;17.71;53.16;99351.28;4498262;31;35180;-63
2022/09/25 07:58:34;;;;;;;8.02;4.55;;;;;;;17.88;52.25;99350.31;4489524;31;32824;-63
2022/09/25 08:01:04;;;;;;;6.82;4.00;;;;;;;17.61;52.62;99354.16;4491876;31;33428;-63
2022/09/25 08:03:32;;;;;;;7.55;4.90;;;;;;;17.75;52.60;99360.75;4490614;31;33686;-63
2022/09/25 08:06:02;;;;;;;9.10;5.00;;;;;;;17.73;52.31;99359.25;4496148;31;33021;-62
2022/09/25 08:08:29;;;;;;;7.47;4.75;;;;;;;17.40;53.58;99361.97;4495866;31;33955;-63
2022/09/25 08:11:01;;;;;;;7.37;4.72;;;;;;;17.71;52.86;99348.59;4494637;31;32033;-62
2022/09/25 08:13:31;;;;;;;10.00;4.90;;;;;;;18.09;52.19;99354.31;4500000;31;35588;-63
2022/09/25 08:16:06;;;;;;;6.55;3.85;;;;;;;17.19;54.12;99351.59;4496862;31;33673;-62
2022/09/25 08:18:33;;;;;;;8.20;4.28;;;;;;;16.95;54.46;99352.38;4495631;31;34267;-62
2022/09/25 08:21:02;;;;;;;7.55;4.15;;;;;;;16.93;54.49;99349.88;4495902;31;33546;-62
2022/09/25 08:23:30;;;;;;;7.15;4.55;;;;;;;17.09;54.45;99359.03;4495069;31;34370;-62
2022/09/25 08:25:58;;;;;;;8.02;4.10;;;;;;;17.00;54.60;99360.84;4495001;31;34016;-62
2022/09/25 08:28:27;;;;;;;10.80;6.37;;;;;;;16.70;55.33;99364.97;4495518;31;35022;-63
2022/09/25 08:30:57;;;;;;;9.50;5.95;;;;;;;16.88;55.08;99378.41;4490982;31;33709;-63
2022/09/25 08:33:25;;;;;;;13.35;8.23;;;;;;;16.52;56.24;99375.84;4498135;31;33659;-63
2022/09/25 08:35:58;;;;;;;14.73;9.23;;;;;;;17.32;54.22;99376.31;4494990;31;34143;-63
2022/09/25 08:38:26;;;;;;;12.52;7.80;;;;;;;17.48;53.89;99370.06;4481914;31;35167;-63
2022/09/25 08:40:58;;;;;;;11.65;6.28;;;;;;;17.13;54.47;99368.50;4497094;31;34768;-62
2022/09/25 08:43:27;;;;;;;11.45;7.12;;;;;;;17.36;54.04;99376.81;4497686;31;33919;-63
2022/09/25 08:49:01;;;;;;;5.65;2.78;;;;;;;17.72;52.66;99365.66;4492243;31;33780;-62
2022/09/25 08:51:29;;;;;;;7.35;3.53;;;;;;;17.13;53.70;99360.37;4488016;31;33185;-62
2022/09/25 08:53:58;;;;;;;6.55;4.32;;;;;;;17.30;53.15;99359.38;4497295;31;34259;-62
2022/09/25 08:56:27;;;;;;;5.30;3.65;;;;;;;17.84;52.36;99353.50;4495575;31;33306;-62
2022/09/25 08:59:14;;;;;;;7.07;3.45;;;;;;;18.12;51.71;99357.53;4497635;31;33847;-62
2022/09/25 09:01:51;;;;;;;5.10;2.75;;;;;;;18.14;51.75;99358.22;4492826;31;33367;-62
2022/09/25 09:04:23;;;;;;;5.30;3.05;;;;;;;18.44;51.08;99363.03;4489969;31;33572;-62
2022/09/25 09:06:59;;;;;;;4.05;2.20;;;;;;;18.18;51.30;99368.69;4496461;31;35114;-63
2022/09/25 09:09:48;;;;;;;;;;;;;;;17.75;52.60;99370.75;4493239;31;33837;-63
2022/09/25 09:12:20;;;;;;;5.85;2.95;;;;;;;18.08;51.88;99372.44;4486852;31;33221;-62
2022/09/25 09:14:50;;;;;;;5.53;2.85;;;;;;;18.41;50.85;99374.22;4483438;31;33616;-62
2022/09/25 09:17:20;;;;;;;5.20;2.80;;;;;;;18.47;50.52;99377.09;4488005;31;33379;-63
2022/09/25 09:19:59;;;;;;;6.22;2.80;;;;;;;18.62;50.29;99372.62;4497680;31;33787;-62
2022/09/25 09:22:36;;;;;;;5.15;2.40;;;;;;;18.26;50.86;99374.94;4493511;31;33273;-63
2022/09/25 09:25:08;;;;;;;6.07;2.75;;;;;;;18.26;50.71;99371.38;4489634;31;32845;-62
2022/09/25 09:27:35;;;;;;;4.72;2.70;;;;;;;18.23;50.84;99377.13;4488204;31;33949;-62
2022/09/25 09:30:16;;;;;;;5.87;2.80;;;;;;;18.23;50.91;99377.13;4494976;31;34124;-62
2022/09/25 09:33:08;;;;;;;5.03;2.70;;;;;;;18.44;50.64;99376.59;4487926;31;34410;-62
2022/09/25 09:35:35;;;;;;;5.32;3.25;;;;;;;18.09;51.12;99376.00;4486453;31;34924;-62
2022/09/25 09:38:25;;;;;;;5.70;3.22;;;;;;;17.65;52.51;99373.63;4489274;31;32942;-63
2022/09/25 09:41:11;;;;;;;7.57;3.15;;;;;;;17.69;52.28;99369.56;4481838;31;33365;-62
2022/09/25 09:43:39;;;;;;;4.62;2.47;;;;;;;17.87;52.38;99375.66;4497484;31;32031;-63
2022/09/25 09:46:17;;;;;;;4.70;2.75;;;;;;;17.91;52.77;99363.50;4496165;31;34707;-62
2022/09/25 09:49:13;;;;;;;4.70;2.40;;;;;;;17.97;52.76;99377.34;4492534;31;35168;-62
2022/09/25 09:51:46;;;;;;;8.32;3.03;;;;;;;18.11;52.96;99376.69;4499642;31;34134;-62
2022/09/25 09:54:21;;;;;;;4.20;2.40;;;;;;;17.44;54.56;99377.69;4494356;31;34407;-63
2022/09/25 09:56:50;;;;;;;7.07;3.33;;;;;;;17.75;54.46;99371.56;4497179;31;33784;-62
2022/09/25 09:59:22;;;;;;;8.32;3.25;;;;;;;17.92;54.59;99365.19;4496494;31;34157;-63
2022/09/25 10:01:58;;;;;;;5.87;3.12;;;;;;;17.85;54.78;99360.63;4491993;31;33850;-63
2022/09/25 10:04:30;;;;;;;6.43;3.20;;;;;;;17.79;55.45;99358.59;4489212;31;32015;-62
2022/09/25 10:07:03;;;;;;;5.07;2.90;;;;;;;17.97;55.28;99364.66;4493648;31;32921;-63
2022/09/25 10:09:31;;;;;;;6.10;2.97;;;;;;;17.88;55.92;99363.84;4499243;31;34285;-63
2022/09/25 10:12:07;;;;;;;4.70;2.87;;;;;;;18.02;55.66;99369.56;4487969;31;34465;-63
2022/09/25 10:14:41;;;;;;;6.12;3.47;;;;;;;17.80;56.36;99363.84;4490405;31;33108;-63
2022/09/25 10:17:12;;;;;;;7.82;3.35;;;;;;;17.74;56.48;99369.06;4473314;31;33924;-63
2022/09/25 10:19:54;;;;;;;5.90;3.22;;;;;;;17.80;56.60;99373.81;4489568;31;34084;-63
2022/09/25 10:22:26;;;;;;;9.00;3.70;;;;;;;18.24;55.81;99370.72;4485675;31;33787;-62
2022/09/25 10:25:00;;;;;;;7.65;3.78;;;;;;;18.41;55.53;99374.22;4493307;31;33283;-62
2022/09/25 10:27:35;;;;;;;5.90;3.62;;;;;;;18.49;55.38;99366.06;4497675;31;33786;-62
2022/09/25 10:30:09;;;;;;;7.10;3.87;;;;;;;18.09;56.82;99378.69;4492725;31;35194;-62
2022/09/25 10:32:47;;;;;;;7.50;3.65;;;;;;;18.45;55.83;99378.28;4498461;31;33718;-63
2022/09/25 10:35:35;;;;;;;7.07;3.80;;;;;;;18.45;56.40;99375.56;4498029;31;34486;-63
2022/09/25 10:38:13;;;;;;;7.22;3.53;;;;;;;18.08;57.17;99368.91;4496683;31;33808;-62
2022/09/25 10:40:45;;;;;;;10.32;4.20;;;;;;;18.39;55.82;99360.84;4486197;31;33869;-62
2022/09/25 10:43:19;;;;;;;6.28;3.53;;;;;;;18.30;56.23;99360.03;4485620;31;33576;-63
2022/09/25 10:45:48;;;;;;;5.57;3.15;;;;;;;18.51;55.99;99356.72;4488295;31;32042;-63
2022/09/25 10:51:16;;;;;;;5.32;3.03;;;;;;;18.39;56.18;99352.72;4493053;31;34066;-63
2022/09/25 10:53:44;;;;;;;4.95;2.80;;;;;;;18.06;57.09;99351.97;4498949;31;33651;-62
2022/09/25 10:56:34;;;;;;;5.72;3.28;;;;;;;17.57;58.66;99349.28;4498126;31;33446;-63
2022/09/25 10:59:02;;;;;;;4.85;2.72;;;;;;;18.04;57.38;99349.44;4496219;31;34971;-63
2022/09/25 11:01:37;;;;;;;4.97;2.55;;;;;;;17.97;57.61;99340.28;4491167;31;33809;-63
2022/09/25 11:04:23;;;;;;;6.62;3.20;;;;;;;18.12;57.38;99345.84;4491058;31;34542;-63
2022/09/25 11:07:03;;;;;;;5.53;3.12;;;;;;;18.29;56.83;99339.38;4500466;31;34508;-62
2022/09/25 11:09:32;;;;;;;6.82;3.20;;;;;;;18.32;56.96;99338.19;4496770;31;33928;-63
2022/09/25 11:12:13;;;;;;;5.40;3.05;;;;;;;18.51;56.26;99329.63;4487276;31;34068;-63
2022/09/25 11:15:01;;;;;;;6.47;2.90;;;;;;;18.53;56.04;99334.91;4498434;31;33910;-63
2022/09/25 11:17:41;;;;;;;5.05;2.55;;;;;;;18.65;54.91;99341.62;4481050;31;33423;-63
2022/09/25 11:20:17;;;;;;;4.35;2.42;;;;;;;18.53;55.59;99341.16;4495464;31;33459;-63
2022/09/25 11:23:17;;;;;;;4.45;2.67;;;;;;;18.44;56.01;99341.38;4483721;31;33041;-62
2022/09/25 11:25:56;;;;;;;4.60;2.50;;;;;;;18.39;55.95;99340.03;4488489;31;34180;-63
2022/09/25 11:28:34;;;;;;;4.87;2.80;;;;;;;18.49;55.80;99334.41;4497009;31;33561;-62
2022/09/25 11:31:25;;;;;;;4.78;2.53;;;;;;;18.42;56.14;99336.09;4486752;31;31894;-64
2022/09/25 11:34:41;;;;;;;4.78;2.50;;;;;;;18.19;57.48;99337.87;4470880;32;33486;-62
2022/09/25 11:37:24;;;;;;;6.57;3.50;;;;;;;18.36;56.94;99343.09;4489159;31;34939;-63
2022/09/25 11:42:47;;;;;;;5.50;2.53;;;;;;;18.01;58.04;99346.19;4494705;31;33754;-63
2022/09/25 11:45:22;;;;;;;4.18;2.40;;;;;;;18.29;57.54;99342.06;4487841;31;33882;-62
2022/09/25 11:47:53;;;;;;;5.27;2.70;;;;;;;18.41;57.60;99339.84;4499132;31;33639;-63
2022/09/25 11:50:33;;;;;;;5.70;2.75;;;;;;;18.46;57.64;99333.88;4482460;31;32864;-63
2022/09/25 11:53:26;;;;;;;5.03;2.85;;;;;;;18.48;57.96;99340.81;4484022;31;32111;-63
2022/09/25 11:56:14;;;;;;;6.15;3.22;;;;;;;18.45;58.26;99337.63;4490624;31;35252;-63
2022/09/25 11:58:48;;;;;;;5.53;3.00;;;;;;;18.65;57.84;99332.63;4491092;31;31906;-63
2022/09/25 12:01:31;;;;;;;5.78;3.40;;;;;;;18.64;58.21;99329.06;4487079;31;32371;-63
2022/09/25 12:04:24;;;;;;;3.83;2.17;;;;;;;18.62;58.58;99328.41;4492320;31;32626;-63
2022/09/25 12:06:52;;;;;;;6.15;3.45;;;;;;;18.63;58.13;99327.41;4490371;31;35284;-63
2022/09/25 12:09:48;;;;;;;5.78;2.37;;;;;;;18.69;57.78;99326.69;4489021;31;33969;-63
2022/09/25 12:12:31;;;;;;;6.87;4.45;;;;;;;18.76;57.83;99324.97;4469763;31;32891;-63
2022/09/25 12:14:59;;;;;;;6.47;3.97;;;;;;;18.68;58.51;99310.59;4497121;31;33679;-63
2022/09/25 12:18:03;;;;;;;8.52;4.72;;;;;;;18.52;58.89;99322.34;4490962;31;35548;-63
2022/09/25 12:20:46;;;;;;;9.95;5.75;;;;;;;18.57;59.38;99326.22;4495828;31;33484;-62